createdAt,value
2022-08-01T00:00:44.519Z,11.50
2022-08-01T00:05:46.317Z,12.07
2022-08-01T00:10:47.800Z,15.30
2022-08-01T00:15:53.932Z,11.73
2022-08-01T00:20:55.858Z,13.48
2022-08-01T00:25:57.946Z,12.18
2022-08-01T00:30:59.427Z,12.77
2022-08-01T00:36:00.893Z,12.70
2022-08-01T00:41:02.435Z,12.55
2022-08-01T00:46:03.894Z,13.73
2022-08-01T00:51:05.871Z,14.40
2022-08-01T00:56:07.950Z,15.20
2022-08-01T01:01:09.501Z,12.77
2022-08-01T01:06:43.012Z,16.80
2022-08-01T01:11:53.630Z,16.90
2022-08-01T01:16:56.057Z,17.67
2022-08-01T01:22:22.735Z,15.10
2022-08-01T01:27:46.383Z,15.38
2022-08-01T01:32:50.978Z,16.08
2022-08-01T01:38:02.367Z,14.70
2022-08-01T01:43:04.055Z,15.80
2022-08-01T01:48:06.989Z,13.20
2022-08-01T01:53:15.213Z,14.27
2022-08-01T01:58:19.116Z,15.85
2022-08-01T02:03:22.062Z,16.55
2022-08-01T02:08:25.257Z,20.90
2022-08-01T02:13:27.089Z,16.95
2022-08-01T02:18:29.153Z,18.42
2022-08-01T02:23:34.953Z,17.85
2022-08-01T02:28:47.784Z,18.70
2022-08-01T02:33:57.805Z,18.55
2022-08-01T02:39:02.257Z,18.45
2022-08-01T02:44:07.738Z,20.85
2022-08-01T02:49:11.932Z,18.98
2022-08-01T02:54:18.237Z,16.13
2022-08-01T02:59:26.412Z,16.98
2022-08-01T03:04:28.804Z,15.45
2022-08-01T03:09:33.257Z,18.70
2022-08-01T03:14:37.145Z,20.10
2022-08-01T03:19:40.325Z,20.95
2022-08-01T03:24:43.883Z,22.73
2022-08-01T03:29:46.199Z,19.98
2022-08-01T03:34:47.819Z,19.33
2022-08-01T03:39:55.338Z,19.83
2022-08-01T03:45:03.564Z,17.88
2022-08-01T03:50:12.259Z,15.60
2022-08-01T03:55:17.852Z,15.02
2022-08-01T04:00:19.636Z,15.50
2022-08-01T04:05:21.409Z,16.35
2022-08-01T04:10:23.934Z,14.15
2022-08-01T04:15:25.411Z,14.18
2022-08-01T04:20:26.941Z,16.35
2022-08-01T04:25:35.919Z,15.25
2022-08-01T04:30:40.053Z,13.95
2022-08-01T04:36:02.269Z,14.80
2022-08-01T04:41:09.501Z,14.43
2022-08-01T04:46:12.631Z,15.88
2022-08-01T04:51:18.405Z,16.77
2022-08-01T04:56:21.602Z,16.65
2022-08-01T05:01:23.182Z,19.42
2022-08-01T05:06:24.668Z,18.35
2022-08-01T05:11:26.078Z,18.00
2022-08-01T05:16:27.542Z,17.20
2022-08-01T05:21:29.119Z,16.70
2022-08-01T05:26:30.523Z,15.38
2022-08-01T05:31:35.200Z,14.18
2022-08-01T05:36:38.491Z,10.55
2022-08-01T05:41:40.384Z,12.02
2022-08-01T05:46:41.843Z,13.60
2022-08-01T05:51:43.716Z,10.70
2022-08-01T05:56:45.137Z,11.00
2022-08-01T06:01:46.782Z,10.77
2022-08-01T06:06:48.617Z,10.50
2022-08-01T06:11:50.056Z,12.65
2022-08-01T06:16:51.421Z,11.00
2022-08-01T06:21:52.842Z,9.05
2022-08-01T06:26:54.412Z,11.45
2022-08-01T06:31:55.806Z,10.10
2022-08-01T06:36:57.221Z,11.35
2022-08-01T06:41:58.622Z,10.70
2022-08-01T06:47:00.050Z,10.90
2022-08-01T06:52:01.503Z,8.45
2022-08-01T06:57:06.510Z,10.70
2022-08-01T07:02:08.950Z,10.27
2022-08-01T07:07:10.612Z,7.97
2022-08-01T07:12:12.298Z,6.70
2022-08-01T07:17:13.722Z,5.85
2022-08-01T07:22:23.474Z,5.75
2022-08-01T07:27:25.956Z,4.20
2022-08-01T07:32:27.956Z,7.30
2022-08-01T07:37:45.555Z,6.65
2022-08-01T07:42:50.907Z,5.03
2022-08-01T07:47:52.335Z,3.92
2022-08-01T07:52:53.806Z,3.53
2022-08-01T07:57:55.257Z,5.57
2022-08-01T08:02:59.702Z,7.50
2022-08-01T08:08:01.244Z,8.70
2022-08-01T08:13:03.010Z,6.95
2022-08-01T08:18:04.896Z,4.97
2022-08-01T08:23:41.615Z,3.70
2022-08-01T08:28:44.756Z,2.72
2022-08-01T08:33:46.151Z,2.88
2022-08-01T08:38:47.615Z,2.00
2022-08-01T08:43:49.478Z,2.28
2022-08-01T08:48:52.543Z,3.90
2022-08-01T08:53:57.928Z,4.68
2022-08-01T08:58:59.489Z,3.50
2022-08-01T09:04:00.971Z,2.47
2022-08-01T09:09:02.773Z,3.42
2022-08-01T09:14:06.956Z,2.55
2022-08-01T09:19:16.072Z,2.42
2022-08-01T09:24:32.406Z,2.38
2022-08-01T09:29:38.183Z,2.15
2022-08-01T09:34:42.435Z,5.35
2022-08-01T09:39:46.165Z,1.90
2022-08-01T09:44:55.198Z,1.98
2022-08-01T09:49:59.415Z,1.73
2022-08-01T09:55:06.561Z,2.17
2022-08-01T10:00:35.656Z,2.08
2022-08-01T10:05:43.808Z,1.40
2022-08-01T10:11:09.161Z,1.90
2022-08-01T10:16:14.095Z,5.75
2022-08-01T10:21:56.619Z,0.45
2022-08-01T10:26:41.340Z,0.30
2022-08-01T10:31:43.106Z,0.40
2022-08-01T10:36:52.119Z,0.30
2022-08-01T10:41:56.055Z,0.35
2022-08-01T10:47:04.274Z,0.70
2022-08-01T10:52:21.303Z,0.50
2022-08-01T10:57:27.499Z,0.40
2022-08-01T11:02:32.842Z,0.90
2022-08-01T11:07:46.878Z,0.93
2022-08-01T11:12:48.939Z,0.70
2022-08-01T11:17:54.893Z,1.55
2022-08-01T11:23:05.083Z,0.47
2022-08-01T11:33:42.369Z,0.35
2022-08-01T11:39:13.570Z,0.70
2022-08-01T11:44:20.963Z,0.98
2022-08-01T11:49:26.572Z,0.45
2022-08-01T11:54:35.274Z,1.98
2022-08-01T11:59:41.424Z,0.88
2022-08-01T12:05:05.807Z,1.90
2022-08-01T12:10:17.391Z,0.80
2022-08-01T12:15:20.809Z,0.75
2022-08-01T12:20:24.321Z,1.50
2022-08-01T12:25:25.888Z,1.00
2022-08-01T12:30:27.890Z,2.20
2022-08-01T12:35:30.626Z,1.23
2022-08-01T12:40:40.949Z,1.30
2022-08-01T12:45:54.509Z,1.40
2022-08-01T12:51:02.256Z,1.23
2022-08-01T12:56:03.970Z,1.63
2022-08-01T13:01:12.979Z,2.17
2022-08-01T13:06:17.930Z,3.08
2022-08-01T13:18:18.708Z,1.60
2022-08-01T13:24:02.666Z,1.90
2022-08-01T13:28:42.997Z,2.13
2022-08-01T13:34:00.018Z,2.25
2022-08-01T13:39:20.823Z,2.67
2022-08-01T13:44:22.341Z,2.25
2022-08-01T13:49:23.781Z,1.83
2022-08-01T13:54:25.670Z,3.20
2022-08-01T13:59:27.154Z,1.80
2022-08-01T14:04:28.693Z,3.65
2022-08-01T14:09:32.565Z,1.65
2022-08-01T14:14:34.160Z,2.35
2022-08-01T14:19:38.899Z,4.28
2022-08-01T14:24:41.153Z,4.28
2022-08-01T14:30:02.838Z,2.28
2022-08-01T14:35:06.399Z,2.67
2022-08-01T14:40:11.485Z,2.42
2022-08-01T14:45:14.369Z,3.95
2022-08-01T14:50:16.775Z,2.65
2022-08-01T14:55:18.854Z,3.97
2022-08-01T15:00:20.931Z,2.03
2022-08-01T15:05:22.453Z,2.88
2022-08-01T15:10:24.923Z,2.55
2022-08-01T15:15:27.623Z,2.42
2022-08-01T15:20:29.162Z,1.88
2022-08-01T15:25:40.399Z,1.63
2022-08-01T15:30:43.062Z,1.75
2022-08-01T15:35:44.611Z,2.58
2022-08-01T15:40:46.010Z,2.80
2022-08-01T15:45:48.629Z,5.13
2022-08-01T15:50:50.970Z,1.60
2022-08-01T15:55:52.915Z,2.47
2022-08-01T16:00:54.429Z,2.72
2022-08-01T16:05:55.954Z,1.67
2022-08-01T16:10:57.435Z,3.95
2022-08-01T16:15:59.559Z,1.50
2022-08-01T16:21:01.981Z,2.47
2022-08-01T16:26:03.450Z,1.77
2022-08-01T16:31:09.640Z,3.13
2022-08-01T16:36:26.487Z,4.20
2022-08-01T16:41:27.913Z,3.20
2022-08-01T16:46:29.443Z,2.40
2022-08-01T16:51:32.579Z,7.10
2022-08-01T16:56:34.473Z,2.85
2022-08-01T17:01:59.167Z,2.05
2022-08-01T17:06:57.892Z,4.00
2022-08-01T17:11:59.315Z,3.13
2022-08-01T17:17:00.857Z,2.60
2022-08-01T17:22:02.318Z,2.85
2022-08-01T17:27:05.046Z,2.40
2022-08-01T17:32:07.930Z,2.38
2022-08-01T17:37:10.316Z,3.20
2022-08-01T17:42:12.525Z,5.20
2022-08-01T17:47:28.827Z,4.78
2022-08-01T17:52:35.791Z,4.82
2022-08-01T17:57:37.218Z,4.88
2022-08-01T18:02:38.870Z,2.78
2022-08-01T18:08:01.086Z,2.97
2022-08-01T18:13:03.622Z,3.22
2022-08-01T18:18:05.271Z,5.30
2022-08-01T18:23:09.883Z,6.05
2022-08-01T18:28:19.565Z,5.68
2022-08-01T18:33:32.625Z,3.78
2022-08-01T18:38:35.187Z,2.70
2022-08-01T18:43:40.407Z,4.88
2022-08-01T18:48:42.054Z,4.55
2022-08-01T18:53:43.502Z,6.03
2022-08-01T18:58:48.438Z,3.88
2022-08-01T19:03:49.948Z,3.75
2022-08-01T19:08:55.694Z,4.53
2022-08-01T19:13:58.806Z,3.40
2022-08-01T19:19:04.523Z,5.57
2022-08-01T19:24:23.622Z,4.75
2022-08-01T19:29:35.410Z,3.72
2022-08-01T19:34:49.768Z,4.38
2022-08-01T19:39:51.744Z,3.90
2022-08-01T19:44:54.075Z,5.43
2022-08-01T19:49:55.530Z,4.93
2022-08-01T19:54:57.895Z,6.05
2022-08-01T20:00:01.999Z,4.00
2022-08-01T20:05:03.635Z,4.15
2022-08-01T20:10:05.528Z,5.60
2022-08-01T20:15:07.829Z,5.13
2022-08-01T20:20:10.254Z,6.53
2022-08-01T20:25:12.577Z,4.30
2022-08-01T20:30:14.620Z,5.03
2022-08-01T20:35:16.276Z,3.38
2022-08-01T20:40:18.682Z,4.18
2022-08-01T20:45:27.505Z,3.95
2022-08-01T20:50:52.895Z,3.70
2022-08-01T20:56:24.874Z,6.55
2022-08-01T21:01:33.842Z,4.87
2022-08-01T21:06:45.115Z,4.20
2022-08-01T21:11:57.089Z,6.18
2022-08-01T21:17:03.568Z,4.55
2022-08-01T21:22:11.925Z,6.25
2022-08-01T21:27:17.371Z,5.28
2022-08-01T21:32:22.013Z,5.75
2022-08-01T21:37:23.499Z,4.82
2022-08-01T21:42:27.668Z,4.85
2022-08-01T21:47:29.993Z,3.05
2022-08-01T21:52:40.998Z,7.25
2022-08-01T21:57:54.579Z,6.50
2022-08-01T22:03:23.430Z,4.47
2022-08-01T22:08:36.952Z,4.35
2022-08-01T22:13:38.581Z,2.97
2022-08-01T22:18:40.134Z,3.50
2022-08-01T22:23:42.599Z,4.18
2022-08-01T22:28:44.462Z,3.85
2022-08-01T22:33:47.384Z,7.20
2022-08-01T22:38:48.921Z,4.68
2022-08-01T22:43:53.127Z,4.40
2022-08-01T22:49:01.831Z,3.05
2022-08-01T22:54:11.441Z,4.05
2022-08-01T22:59:16.337Z,5.30
2022-08-01T23:04:33.199Z,4.50
2022-08-01T23:09:48.070Z,5.82
2022-08-01T23:14:57.859Z,8.47
2022-08-01T23:20:05.601Z,4.20
2022-08-01T23:25:12.551Z,5.63
2022-08-01T23:30:14.480Z,6.50
2022-08-01T23:35:15.882Z,4.07
2022-08-01T23:40:18.365Z,4.55
2022-08-01T23:45:20.862Z,6.15
2022-08-01T23:50:22.687Z,6.90
2022-08-01T23:55:35.040Z,4.82
